createdAt,value
2022-11-04T00:00:10.054Z,96.00
2022-11-04T00:01:11.976Z,96.41
2022-11-04T00:02:14.893Z,96.51
2022-11-04T00:03:16.890Z,96.35
2022-11-04T00:04:21.410Z,96.28
2022-11-04T00:05:23.274Z,96.55
2022-11-04T00:06:26.730Z,96.85
2022-11-04T00:07:47.262Z,97.00
2022-11-04T00:08:50.976Z,97.20
2022-11-04T00:09:53.853Z,97.20
2022-11-04T00:11:29.590Z,97.44
2022-11-04T00:12:31.576Z,97.70
2022-11-04T00:13:34.960Z,97.85
2022-11-04T00:14:38.161Z,97.58
2022-11-04T00:15:58.967Z,98.03
2022-11-04T00:17:20.045Z,97.76
2022-11-04T00:18:22.256Z,98.22
2022-11-04T00:19:25.626Z,98.22
2022-11-04T00:20:46.455Z,98.27
2022-11-04T00:22:07.086Z,98.82
2022-11-04T00:23:27.573Z,98.69
2022-11-04T00:24:44.816Z,98.60
2022-11-04T00:26:05.178Z,99.09
2022-11-04T00:27:27.036Z,98.91
2022-11-04T00:28:45.097Z,98.98
2022-11-04T00:29:48.478Z,99.36
2022-11-04T00:30:55.254Z,99.44
2022-11-04T00:32:18.099Z,99.34
2022-11-04T00:33:25.833Z,99.75
2022-11-04T00:34:27.824Z,99.78
2022-11-04T00:35:30.827Z,99.69
2022-11-04T00:36:33.011Z,99.59
2022-11-04T00:37:38.048Z,99.93
2022-11-04T00:38:40.040Z,99.93
2022-11-04T00:39:43.026Z,100.00
2022-11-04T00:40:45.137Z,100.00
2022-11-04T00:41:48.170Z,100.00
2022-11-04T00:42:50.214Z,100.00
2022-11-04T00:43:53.511Z,100.00
2022-11-04T00:44:56.963Z,100.00
2022-11-04T00:45:59.977Z,100.00
2022-11-04T00:47:02.001Z,100.00
2022-11-04T00:48:05.736Z,100.00
2022-11-04T00:49:07.943Z,100.00
2022-11-04T00:50:11.207Z,100.00
2022-11-04T00:52:16.137Z,100.00
2022-11-04T00:53:19.142Z,100.00
2022-11-04T00:54:21.126Z,100.00
2022-11-04T00:55:24.094Z,100.00
2022-11-04T00:56:26.300Z,100.00
2022-11-04T00:57:29.355Z,100.00
2022-11-04T00:58:31.401Z,100.00
2022-11-04T00:59:34.393Z,100.00
2022-11-04T01:00:38.200Z,100.00
2022-11-04T01:01:41.565Z,100.00
2022-11-04T01:02:43.747Z,100.00
2022-11-04T01:03:47.931Z,100.00
2022-11-04T01:04:49.993Z,100.00
2022-11-04T01:05:53.020Z,100.00
2022-11-04T01:06:55.526Z,100.00
2022-11-04T01:07:58.674Z,100.00
2022-11-04T01:09:03.323Z,100.00
2022-11-04T01:10:07.256Z,100.00
2022-11-04T01:11:10.605Z,100.00
2022-11-04T01:12:13.767Z,100.00
2022-11-04T01:13:15.801Z,100.00
2022-11-04T01:14:19.535Z,100.00
2022-11-04T01:15:21.769Z,100.00
2022-11-04T01:17:30.376Z,100.00
2022-11-04T01:18:33.703Z,100.00
2022-11-04T01:19:35.926Z,100.00
2022-11-04T01:20:38.938Z,100.00
2022-11-04T01:21:41.066Z,100.00
2022-11-04T01:22:44.139Z,100.00
2022-11-04T01:23:46.540Z,100.00
2022-11-04T01:24:49.560Z,100.00
2022-11-04T01:25:51.598Z,100.00
2022-11-04T01:26:54.645Z,100.00
2022-11-04T01:27:56.671Z,100.00
2022-11-04T01:29:00.190Z,100.00
2022-11-04T01:30:03.265Z,100.00
2022-11-04T01:31:06.352Z,100.00
2022-11-04T01:32:10.770Z,100.00
2022-11-04T01:33:13.034Z,100.00
2022-11-04T01:34:16.040Z,100.00
2022-11-04T01:35:18.095Z,100.00
2022-11-04T01:36:21.695Z,100.00
2022-11-04T01:37:23.864Z,100.00
2022-11-04T01:38:26.908Z,100.00
2022-11-04T01:39:28.933Z,100.00
2022-11-04T01:40:36.742Z,100.00
2022-11-04T01:41:39.051Z,100.00
2022-11-04T01:42:42.162Z,100.00
2022-11-04T01:43:48.524Z,100.00
2022-11-04T01:44:54.737Z,100.00
2022-11-04T01:45:59.838Z,100.00
2022-11-04T01:47:02.939Z,100.00
2022-11-04T01:48:13.707Z,100.00
2022-11-04T01:49:23.982Z,100.00
2022-11-04T01:50:29.888Z,100.00
2022-11-04T01:51:36.288Z,100.00
2022-11-04T01:52:43.710Z,100.00
2022-11-04T01:53:47.496Z,100.00
2022-11-04T01:54:54.236Z,100.00
2022-11-04T01:55:59.881Z,100.00
2022-11-04T01:57:04.083Z,100.00
2022-11-04T01:58:10.296Z,100.00
2022-11-04T01:59:16.870Z,100.00
2022-11-04T02:00:20.389Z,100.00
2022-11-04T02:01:22.576Z,100.00
2022-11-04T02:02:25.872Z,100.00
2022-11-04T02:03:32.916Z,100.00
2022-11-04T02:04:38.919Z,100.00
2022-11-04T02:05:43.327Z,100.00
2022-11-04T02:06:47.291Z,100.00
2022-11-04T02:07:52.930Z,100.00
2022-11-04T02:08:54.976Z,100.00
2022-11-04T02:09:58.124Z,100.00
2022-11-04T02:11:02.401Z,100.00
2022-11-04T02:12:23.689Z,100.00
2022-11-04T02:13:26.537Z,100.00
2022-11-04T02:14:29.969Z,100.00
2022-11-04T02:15:41.511Z,100.00
2022-11-04T02:16:45.751Z,100.00
2022-11-04T02:18:08.200Z,100.00
2022-11-04T02:19:31.637Z,100.00
2022-11-04T02:21:02.898Z,100.00
2022-11-04T02:22:40.041Z,100.00
2022-11-04T02:24:03.480Z,100.00
2022-11-04T02:25:32.699Z,100.00
2022-11-04T02:27:11.887Z,100.00
2022-11-04T02:28:33.472Z,100.00
2022-11-04T02:29:51.228Z,100.00
2022-11-04T02:31:02.444Z,100.00
2022-11-04T02:32:15.067Z,100.00
2022-11-04T02:33:25.669Z,100.00
2022-11-04T02:34:38.421Z,100.00
2022-11-04T02:35:49.876Z,100.00
2022-11-04T02:37:01.215Z,100.00
2022-11-04T02:38:14.229Z,100.00
2022-11-04T02:39:29.105Z,100.00
2022-11-04T02:40:40.507Z,100.00
2022-11-04T02:41:53.703Z,100.00
2022-11-04T02:43:02.375Z,100.00
2022-11-04T02:44:15.144Z,100.00
2022-11-04T02:45:25.955Z,100.00
2022-11-04T02:46:33.061Z,100.00
2022-11-04T02:47:39.401Z,100.00
2022-11-04T02:48:46.671Z,100.00
2022-11-04T02:49:56.372Z,100.00
2022-11-04T02:51:05.150Z,100.00
2022-11-04T02:52:10.789Z,100.00
2022-11-04T02:53:17.014Z,100.00
2022-11-04T02:54:24.299Z,100.00
2022-11-04T02:55:30.964Z,100.00
2022-11-04T02:56:37.420Z,100.00
2022-11-04T02:57:42.351Z,100.00
2022-11-04T02:58:51.350Z,100.00
2022-11-04T02:59:57.499Z,100.00
2022-11-04T03:01:04.543Z,100.00
2022-11-04T03:02:10.336Z,100.00
2022-11-04T03:03:17.153Z,100.00
2022-11-04T03:04:25.011Z,100.00
2022-11-04T03:05:32.239Z,100.00
2022-11-04T03:06:36.480Z,100.00
2022-11-04T03:07:42.971Z,100.00
2022-11-04T03:08:49.617Z,100.00
2022-11-04T03:09:55.777Z,100.00
2022-11-04T03:11:04.443Z,100.00
2022-11-04T03:12:14.846Z,100.00
2022-11-04T03:13:22.062Z,100.00
2022-11-04T03:14:31.816Z,100.00
2022-11-04T03:15:36.918Z,100.00
2022-11-04T03:16:46.322Z,100.00
2022-11-04T03:17:55.456Z,100.00
2022-11-04T03:19:03.471Z,100.00
2022-11-04T03:20:10.085Z,100.00
2022-11-04T03:21:15.314Z,100.00
2022-11-04T03:22:20.749Z,100.00
2022-11-04T03:23:23.945Z,100.00
2022-11-04T03:24:26.540Z,100.00
2022-11-04T03:25:37.398Z,100.00
2022-11-04T03:26:44.866Z,100.00
2022-11-04T03:27:57.144Z,100.00
2022-11-04T03:29:13.390Z,100.00
2022-11-04T03:31:24.901Z,100.00
2022-11-04T03:32:38.630Z,100.00
2022-11-04T03:33:46.336Z,100.00
2022-11-04T03:34:48.830Z,100.00
2022-11-04T03:35:51.920Z,100.00
2022-11-04T03:36:53.997Z,100.00
2022-11-04T03:37:58.413Z,100.00
2022-11-04T03:39:00.414Z,100.00
2022-11-04T03:40:04.193Z,100.00
2022-11-04T03:41:12.579Z,100.00
2022-11-04T03:42:23.289Z,100.00
2022-11-04T03:43:27.752Z,100.00
2022-11-04T03:44:31.212Z,100.00
2022-11-04T03:45:33.362Z,100.00
2022-11-04T03:46:36.884Z,100.00
2022-11-04T03:47:41.031Z,100.00
2022-11-04T03:48:46.566Z,100.00
2022-11-04T03:49:50.092Z,100.00
2022-11-04T03:50:53.118Z,100.00
2022-11-04T03:51:55.132Z,100.00
2022-11-04T03:52:59.905Z,100.00
2022-11-04T03:54:02.034Z,100.00
2022-11-04T03:55:07.523Z,100.00
2022-11-04T03:56:34.292Z,100.00
2022-11-04T03:57:47.222Z,100.00
2022-11-04T03:59:06.369Z,100.00
2022-11-04T04:00:12.987Z,100.00
2022-11-04T04:01:28.355Z,100.00
2022-11-04T04:02:49.546Z,100.00
2022-11-04T04:03:58.916Z,100.00
2022-11-04T04:05:06.035Z,100.00
2022-11-04T04:06:16.399Z,100.00
2022-11-04T04:07:22.914Z,100.00
2022-11-04T04:08:35.485Z,100.00
2022-11-04T04:09:42.207Z,100.00
2022-11-04T04:10:53.928Z,100.00
2022-11-04T04:12:03.005Z,100.00
2022-11-04T04:13:15.149Z,100.00
2022-11-04T04:14:38.119Z,100.00
2022-11-04T04:15:45.635Z,100.00
2022-11-04T04:16:49.734Z,100.00
2022-11-04T04:17:59.661Z,100.00
2022-11-04T04:19:06.957Z,100.00
2022-11-04T04:20:15.134Z,100.00
2022-11-04T04:21:22.511Z,100.00
2022-11-04T04:22:29.350Z,100.00
2022-11-04T04:23:52.846Z,100.00
2022-11-04T04:25:16.943Z,100.00
2022-11-04T04:26:40.629Z,100.00
2022-11-04T04:27:45.902Z,100.00
2022-11-04T04:28:50.527Z,100.00
2022-11-04T04:29:54.811Z,100.00
2022-11-04T04:31:00.247Z,100.00
2022-11-04T04:32:05.306Z,100.00
2022-11-04T04:33:11.741Z,100.00
2022-11-04T04:34:14.831Z,100.00
2022-11-04T04:35:36.220Z,100.00
2022-11-04T04:36:45.279Z,100.00
2022-11-04T04:37:48.783Z,100.00
2022-11-04T04:39:09.166Z,100.00
2022-11-04T04:40:34.618Z,100.00
2022-11-04T04:41:55.243Z,100.00
2022-11-04T04:43:15.644Z,100.00
2022-11-04T04:44:41.995Z,100.00
2022-11-04T04:45:52.051Z,100.00
2022-11-04T04:46:56.771Z,100.00
2022-11-04T04:48:00.199Z,100.00
2022-11-04T04:49:07.855Z,100.00
2022-11-04T04:50:12.592Z,100.00
2022-11-04T04:51:14.824Z,100.00
2022-11-04T04:52:18.009Z,99.82
2022-11-04T04:53:21.217Z,99.60
2022-11-04T04:54:23.274Z,98.32
2022-11-04T04:55:26.252Z,99.12
2022-11-04T04:56:28.367Z,98.45
2022-11-04T04:57:31.423Z,98.45
2022-11-04T04:58:33.456Z,97.79
2022-11-04T04:59:36.480Z,97.29
2022-11-04T05:00:38.497Z,97.19
2022-11-04T05:01:41.605Z,96.64
2022-11-04T05:02:44.091Z,96.76
2022-11-04T05:03:47.194Z,96.50
2022-11-04T05:04:50.557Z,96.93
2022-11-04T05:05:56.285Z,96.24
2022-11-04T05:07:00.754Z,96.06
2022-11-04T05:08:07.724Z,95.99
2022-11-04T05:09:10.314Z,96.08
2022-11-04T05:10:16.053Z,95.63
2022-11-04T05:11:20.565Z,95.59
2022-11-04T05:12:47.361Z,95.59
2022-11-04T05:13:49.439Z,95.80
2022-11-04T05:14:52.657Z,95.52
2022-11-04T05:15:54.668Z,95.71
2022-11-04T05:16:58.382Z,95.85
2022-11-04T05:18:03.342Z,95.77
2022-11-04T05:19:05.355Z,95.52
2022-11-04T05:20:11.905Z,95.64
2022-11-04T05:21:15.920Z,95.53
2022-11-04T05:22:18.979Z,95.51
2022-11-04T05:23:21.334Z,95.44
2022-11-04T05:24:24.429Z,95.39
2022-11-04T05:25:26.450Z,95.43
2022-11-04T05:26:29.479Z,95.34
2022-11-04T05:27:31.581Z,95.12
2022-11-04T05:28:34.645Z,95.31
2022-11-04T05:29:36.729Z,95.32
2022-11-04T05:30:40.012Z,95.32
2022-11-04T05:31:42.026Z,95.44
2022-11-04T05:32:45.026Z,95.25
2022-11-04T05:33:47.010Z,95.21
2022-11-04T05:34:50.098Z,94.83
2022-11-04T05:35:54.543Z,95.37
2022-11-04T05:36:56.529Z,95.29
2022-11-04T05:37:59.533Z,95.09
2022-11-04T05:39:01.707Z,95.17
2022-11-04T05:40:05.347Z,95.32
2022-11-04T05:41:09.355Z,95.51
2022-11-04T05:42:12.371Z,95.48
2022-11-04T05:43:14.392Z,95.37
2022-11-04T05:44:17.481Z,95.21
2022-11-04T05:45:19.755Z,95.07
2022-11-04T05:46:22.955Z,94.82
2022-11-04T05:47:25.051Z,94.93
2022-11-04T05:48:28.553Z,94.95
2022-11-04T05:49:30.677Z,95.22
2022-11-04T05:50:34.825Z,95.16
2022-11-04T05:51:38.227Z,95.33
2022-11-04T05:52:41.320Z,95.07
2022-11-04T05:53:43.816Z,95.14
2022-11-04T05:54:47.578Z,95.27
2022-11-04T05:55:49.632Z,95.21
2022-11-04T05:56:52.720Z,95.12
2022-11-04T05:57:54.957Z,95.43
2022-11-04T05:58:58.025Z,95.48
2022-11-04T06:00:00.082Z,95.08
2022-11-04T06:01:14.039Z,95.29
2022-11-04T06:02:16.236Z,95.17
2022-11-04T06:03:19.371Z,95.14
2022-11-04T06:04:21.540Z,95.20
2022-11-04T06:05:24.753Z,95.65
2022-11-04T06:06:29.236Z,95.51
2022-11-04T06:07:33.639Z,95.77
2022-11-04T06:08:35.777Z,95.52
2022-11-04T06:09:41.554Z,95.45
2022-11-04T06:10:43.870Z,95.52
2022-11-04T06:11:47.016Z,95.83
2022-11-04T06:12:49.083Z,95.45
2022-11-04T06:13:52.524Z,95.64
2022-11-04T06:14:54.588Z,95.73
2022-11-04T06:15:57.749Z,95.85
2022-11-04T06:17:01.193Z,95.47
2022-11-04T06:18:03.374Z,95.80
2022-11-04T06:19:09.681Z,95.72
2022-11-04T06:20:14.134Z,95.55
2022-11-04T06:21:26.259Z,95.90
2022-11-04T06:22:28.344Z,95.61
2022-11-04T06:23:32.893Z,95.75
2022-11-04T06:24:35.960Z,95.70
2022-11-04T06:25:38.027Z,96.13
2022-11-04T06:26:41.107Z,95.74
2022-11-04T06:27:44.135Z,96.20
2022-11-04T06:28:46.212Z,96.14
2022-11-04T06:29:49.314Z,96.18
2022-11-04T06:30:51.350Z,95.95
2022-11-04T06:31:54.402Z,95.93
2022-11-04T06:32:56.613Z,96.15
2022-11-04T06:33:59.678Z,96.04
2022-11-04T06:35:01.694Z,96.14
2022-11-04T06:36:07.481Z,96.28
2022-11-04T06:37:10.230Z,96.16
2022-11-04T06:38:13.238Z,96.25
2022-11-04T06:39:17.017Z,96.32
2022-11-04T06:40:20.116Z,96.78
2022-11-04T06:41:22.217Z,96.36
2022-11-04T06:42:26.937Z,96.76
2022-11-04T06:43:28.982Z,96.49
2022-11-04T06:44:39.927Z,97.02
2022-11-04T06:45:44.751Z,96.91
2022-11-04T06:46:48.443Z,96.94
2022-11-04T06:47:50.462Z,96.88
2022-11-04T06:48:53.731Z,96.86
2022-11-04T06:49:55.731Z,96.97
2022-11-04T06:50:59.702Z,97.31
2022-11-04T06:52:03.349Z,97.37
2022-11-04T06:53:05.667Z,97.29
2022-11-04T06:54:09.012Z,97.72
2022-11-04T06:55:12.482Z,97.56
2022-11-04T06:56:15.683Z,97.78
2022-11-04T06:57:17.821Z,98.09
2022-11-04T06:58:20.992Z,98.27
2022-11-04T06:59:24.030Z,97.99
2022-11-04T07:00:27.122Z,98.39
2022-11-04T07:01:32.779Z,98.08
2022-11-04T07:02:36.572Z,98.75
2022-11-04T07:03:38.750Z,98.72
2022-11-04T07:04:41.807Z,98.56
2022-11-04T07:05:43.764Z,98.98
2022-11-04T07:06:46.829Z,99.01
2022-11-04T07:07:48.853Z,98.87
2022-11-04T07:08:53.513Z,99.16
2022-11-04T07:09:55.541Z,99.32
2022-11-04T07:10:59.946Z,99.01
2022-11-04T07:12:02.923Z,98.98
2022-11-04T07:13:05.067Z,99.36
2022-11-04T07:14:08.855Z,99.39
2022-11-04T07:15:12.952Z,99.76
2022-11-04T07:16:15.668Z,99.52
2022-11-04T07:17:18.878Z,99.23
2022-11-04T07:18:21.063Z,99.70
2022-11-04T07:19:24.066Z,99.57
2022-11-04T07:20:26.309Z,99.89
2022-11-04T07:21:29.865Z,99.75
2022-11-04T07:22:32.100Z,100.00
2022-11-04T07:23:35.571Z,99.91
2022-11-04T07:24:37.545Z,100.00
2022-11-04T07:25:40.598Z,100.00
2022-11-04T07:26:45.015Z,100.00
2022-11-04T07:27:47.057Z,100.00
2022-11-04T07:28:50.618Z,100.00
2022-11-04T07:29:52.609Z,100.00
2022-11-04T07:30:57.242Z,100.00
2022-11-04T07:31:59.424Z,100.00
2022-11-04T07:33:02.472Z,100.00
2022-11-04T07:34:05.646Z,100.00
2022-11-04T07:35:08.283Z,99.88
2022-11-04T07:36:13.468Z,100.00
2022-11-04T07:37:15.489Z,99.78
2022-11-04T07:38:18.476Z,100.00
2022-11-04T07:39:21.642Z,100.00
2022-11-04T07:40:24.637Z,100.00
2022-11-04T07:41:27.727Z,100.00
2022-11-04T07:42:31.113Z,100.00
2022-11-04T07:43:41.348Z,100.00
2022-11-04T07:44:43.354Z,100.00
2022-11-04T07:45:46.396Z,100.00
2022-11-04T07:46:48.538Z,100.00
2022-11-04T07:47:51.593Z,100.00
2022-11-04T07:48:58.291Z,100.00
2022-11-04T07:50:00.426Z,100.00
2022-11-04T07:51:04.397Z,100.00
2022-11-04T07:52:06.411Z,100.00
2022-11-04T07:53:10.546Z,100.00
2022-11-04T07:54:13.967Z,100.00
2022-11-04T07:55:18.547Z,100.00
2022-11-04T07:56:21.152Z,100.00
2022-11-04T07:57:24.187Z,100.00
2022-11-04T07:58:29.375Z,100.00
2022-11-04T07:59:32.488Z,100.00
2022-11-04T08:00:35.469Z,100.00
2022-11-04T08:01:38.540Z,100.00
2022-11-04T08:02:40.903Z,100.00
2022-11-04T08:03:44.225Z,100.00
2022-11-04T08:04:46.390Z,100.00
2022-11-04T08:05:56.473Z,100.00
2022-11-04T08:06:59.114Z,100.00
2022-11-04T08:08:02.236Z,100.00
2022-11-04T08:09:05.569Z,100.00
2022-11-04T08:10:10.072Z,100.00
2022-11-04T08:11:17.647Z,100.00
2022-11-04T08:12:20.955Z,99.75
2022-11-04T08:13:24.196Z,100.00
2022-11-04T08:14:28.690Z,99.86
2022-11-04T08:15:30.793Z,99.78
2022-11-04T08:16:34.636Z,99.75
2022-11-04T08:17:37.747Z,99.75
2022-11-04T08:18:40.794Z,99.46
2022-11-04T08:19:43.855Z,98.89
2022-11-04T08:20:50.627Z,99.17
2022-11-04T08:21:52.770Z,99.21
2022-11-04T08:22:55.823Z,98.99
2022-11-04T08:23:57.992Z,99.14
2022-11-04T08:25:01.046Z,98.94
2022-11-04T08:26:07.878Z,98.87
2022-11-04T08:27:11.162Z,98.94
2022-11-04T08:28:17.611Z,98.85
2022-11-04T08:29:20.841Z,98.40
2022-11-04T08:30:24.393Z,98.29
2022-11-04T08:31:29.679Z,98.68
2022-11-04T08:32:32.686Z,98.46
2022-11-04T08:33:35.417Z,98.05
2022-11-04T08:34:38.689Z,98.19
2022-11-04T08:35:42.817Z,98.10
2022-11-04T08:36:47.070Z,98.20
2022-11-04T08:37:50.147Z,98.20
2022-11-04T08:38:53.126Z,98.16
2022-11-04T08:39:56.253Z,98.16
2022-11-04T08:41:00.274Z,97.80
2022-11-04T08:42:03.526Z,97.98
2022-11-04T08:43:05.560Z,97.68
2022-11-04T08:44:09.100Z,97.30
2022-11-04T08:45:11.231Z,97.48
2022-11-04T08:46:16.156Z,97.45
2022-11-04T08:47:18.491Z,96.94
2022-11-04T08:48:21.535Z,97.30
2022-11-04T08:49:24.564Z,96.99
2022-11-04T08:50:27.878Z,97.35
2022-11-04T08:51:32.619Z,97.03
2022-11-04T08:52:35.658Z,97.13
2022-11-04T08:53:37.982Z,96.92
2022-11-04T08:54:41.033Z,96.99
2022-11-04T08:55:43.062Z,96.92
2022-11-04T08:56:46.126Z,96.70
2022-11-04T08:57:48.111Z,96.64
2022-11-04T08:58:51.540Z,96.54
2022-11-04T08:59:54.584Z,96.23
2022-11-04T09:00:56.620Z,96.19
2022-11-04T09:02:01.135Z,96.13
2022-11-04T09:03:04.323Z,96.55
2022-11-04T09:04:08.163Z,96.34
2022-11-04T09:05:11.318Z,96.30
2022-11-04T09:06:15.764Z,96.28
2022-11-04T09:07:18.851Z,95.93
2022-11-04T09:08:20.834Z,95.89
2022-11-04T09:09:23.843Z,95.93
2022-11-04T09:10:26.825Z,95.61
2022-11-04T09:11:30.067Z,95.87
2022-11-04T09:12:32.164Z,95.47
2022-11-04T09:13:39.392Z,95.69
2022-11-04T09:14:43.092Z,95.25
2022-11-04T09:15:45.162Z,95.19
2022-11-04T09:16:48.167Z,95.24
2022-11-04T09:17:51.592Z,95.04
2022-11-04T09:18:54.650Z,94.88
2022-11-04T09:19:57.632Z,94.88
2022-11-04T09:21:00.519Z,94.79
2022-11-04T09:22:03.506Z,94.59
2022-11-04T09:23:05.888Z,94.30
2022-11-04T09:24:09.199Z,93.99
2022-11-04T09:25:11.239Z,93.95
2022-11-04T09:26:16.664Z,93.71
2022-11-04T09:27:18.689Z,93.85
2022-11-04T09:28:21.738Z,93.47
2022-11-04T09:29:24.746Z,93.47
2022-11-04T09:30:27.084Z,93.42
2022-11-04T09:31:31.656Z,93.61
2022-11-04T09:32:33.687Z,93.15
2022-11-04T09:33:38.303Z,93.41
2022-11-04T09:34:41.314Z,93.03
2022-11-04T09:35:43.352Z,92.70
2022-11-04T09:36:47.543Z,92.56
2022-11-04T09:37:50.600Z,92.74
2022-11-04T09:38:53.932Z,92.34
2022-11-04T09:39:56.148Z,92.45
2022-11-04T09:41:00.904Z,92.43
2022-11-04T09:42:31.918Z,92.43
2022-11-04T09:43:41.089Z,92.22
2022-11-04T09:45:20.178Z,92.01
2022-11-04T09:46:15.562Z,92.14
2022-11-04T09:47:21.873Z,92.31
2022-11-04T09:48:28.758Z,92.25
2022-11-04T09:49:38.353Z,92.12
2022-11-04T09:50:46.814Z,92.04
2022-11-04T09:51:55.289Z,92.27
2022-11-04T09:53:04.077Z,92.13
2022-11-04T09:54:14.834Z,92.55
2022-11-04T09:55:22.157Z,92.30
2022-11-04T09:56:28.179Z,92.32
2022-11-04T09:57:33.083Z,92.28
2022-11-04T09:58:39.244Z,92.67
2022-11-04T09:59:42.284Z,92.43
2022-11-04T10:00:49.349Z,91.95
2022-11-04T10:02:06.877Z,91.84
2022-11-04T10:03:27.108Z,91.85
2022-11-04T10:04:41.978Z,91.55
2022-11-04T10:06:00.515Z,91.02
2022-11-04T10:07:18.033Z,91.30
2022-11-04T10:08:45.897Z,90.63
2022-11-04T10:10:00.506Z,90.87
2022-11-04T10:11:07.363Z,90.92
2022-11-04T10:12:23.408Z,91.11
2022-11-04T10:13:33.780Z,90.79
2022-11-04T10:15:12.896Z,90.20
2022-11-04T10:16:26.711Z,90.29
2022-11-04T10:17:49.020Z,90.18
2022-11-04T10:19:12.795Z,89.91
2022-11-04T10:20:29.474Z,90.04
2022-11-04T10:21:42.120Z,89.88
2022-11-04T10:22:55.596Z,89.88
2022-11-04T10:24:08.488Z,89.62
2022-11-04T10:25:16.001Z,89.74
2022-11-04T10:26:27.951Z,89.46
2022-11-04T10:27:34.552Z,89.38
2022-11-04T10:28:42.921Z,89.33
2022-11-04T10:29:49.614Z,89.11
2022-11-04T10:30:58.665Z,89.35
2022-11-04T10:32:04.814Z,89.17
2022-11-04T10:33:13.221Z,89.11
2022-11-04T10:34:28.979Z,89.17
2022-11-04T10:35:37.912Z,88.95
2022-11-04T10:36:41.917Z,88.68
2022-11-04T10:37:43.998Z,88.27
2022-11-04T10:38:49.831Z,88.40
2022-11-04T10:39:57.160Z,88.36
2022-11-04T10:41:06.889Z,88.11
2022-11-04T10:42:12.585Z,87.71
2022-11-04T10:43:18.957Z,87.86
2022-11-04T10:44:25.227Z,87.77
2022-11-04T10:45:35.927Z,87.71
2022-11-04T10:46:51.850Z,87.31
2022-11-04T10:48:00.342Z,87.65
2022-11-04T10:49:11.613Z,87.25
2022-11-04T10:50:31.352Z,87.57
2022-11-04T10:51:36.189Z,86.96
2022-11-04T10:52:40.038Z,87.13
2022-11-04T10:53:44.473Z,87.19
2022-11-04T10:54:48.836Z,87.26
2022-11-04T10:56:00.436Z,87.16
2022-11-04T10:57:02.953Z,87.38
2022-11-04T10:58:17.239Z,87.29
2022-11-04T10:59:25.766Z,87.42
2022-11-04T11:00:40.193Z,87.60
2022-11-04T11:01:50.225Z,87.71
2022-11-04T11:02:52.474Z,87.89
2022-11-04T11:03:56.278Z,87.58
2022-11-04T11:05:14.349Z,87.50
2022-11-04T11:06:25.740Z,87.44
2022-11-04T11:07:37.793Z,87.37
2022-11-04T11:08:41.544Z,87.52
2022-11-04T11:09:54.082Z,87.08
2022-11-04T11:10:56.983Z,87.03
2022-11-04T11:12:02.293Z,87.13
2022-11-04T11:13:07.476Z,87.45
2022-11-04T11:14:18.151Z,87.12
2022-11-04T11:15:30.258Z,87.25
2022-11-04T11:16:33.354Z,87.19
2022-11-04T11:17:42.486Z,86.89
2022-11-04T11:18:45.721Z,86.62
2022-11-04T11:19:52.244Z,86.44
2022-11-04T11:21:11.634Z,86.32
2022-11-04T11:22:32.754Z,85.63
2022-11-04T11:23:39.547Z,85.67
2022-11-04T11:24:42.578Z,85.57
2022-11-04T11:25:50.339Z,84.89
2022-11-04T11:26:55.236Z,85.41
2022-11-04T11:28:06.468Z,84.50
2022-11-04T11:29:12.957Z,84.21
2022-11-04T11:30:23.499Z,84.61
2022-11-04T11:31:26.955Z,84.59
2022-11-04T11:32:33.284Z,84.29
2022-11-04T11:33:39.181Z,84.41
2022-11-04T11:34:45.620Z,84.15
2022-11-04T11:35:52.139Z,83.68
2022-11-04T11:36:56.835Z,84.13
2022-11-04T11:38:04.101Z,83.68
2022-11-04T11:39:17.173Z,83.84
2022-11-04T11:40:34.230Z,83.53
2022-11-04T11:41:53.268Z,83.55
2022-11-04T11:42:56.611Z,82.70
2022-11-04T11:44:03.707Z,82.79
2022-11-04T11:45:17.693Z,81.81
2022-11-04T11:46:23.282Z,82.06
2022-11-04T11:47:38.259Z,81.96
2022-11-04T11:48:43.441Z,81.61
2022-11-04T11:49:46.577Z,81.25
2022-11-04T11:50:56.867Z,81.06
2022-11-04T11:52:27.590Z,81.40
2022-11-04T11:53:34.204Z,81.54
2022-11-04T11:54:39.216Z,81.81
2022-11-04T11:55:47.965Z,81.92
2022-11-04T12:01:26.663Z,82.09
2022-11-04T12:02:35.612Z,81.92
2022-11-04T12:09:57.336Z,82.38
2022-11-04T12:11:08.759Z,82.28
2022-11-04T12:12:23.829Z,82.39
2022-11-04T12:13:30.138Z,82.27
2022-11-04T12:14:49.545Z,82.23
2022-11-04T12:16:10.531Z,81.58
2022-11-04T12:17:27.201Z,81.69
2022-11-04T12:19:07.190Z,81.54
2022-11-04T12:20:34.194Z,81.78
2022-11-04T12:21:42.422Z,81.46
2022-11-04T12:22:51.259Z,81.56
2022-11-04T12:24:01.151Z,81.34
2022-11-04T12:25:15.901Z,81.77
2022-11-04T12:26:29.816Z,81.46
2022-11-04T12:27:40.993Z,81.86
2022-11-04T12:28:58.912Z,81.59
2022-11-04T12:30:06.879Z,81.50
2022-11-04T12:31:23.438Z,81.64
2022-11-04T12:32:37.802Z,81.82
2022-11-04T12:33:47.543Z,81.75
2022-11-04T12:35:10.975Z,81.56
2022-11-04T12:36:39.718Z,81.72
2022-11-04T12:37:55.759Z,81.74
2022-11-04T12:39:21.265Z,81.75
2022-11-04T12:40:29.490Z,81.76
2022-11-04T12:42:06.740Z,81.75
2022-11-04T12:43:21.082Z,81.67
2022-11-04T12:44:32.708Z,81.53
2022-11-04T12:45:48.100Z,81.78
2022-11-04T12:47:02.011Z,81.80
2022-11-04T12:48:10.005Z,81.51
2022-11-04T12:49:39.849Z,81.70
2022-11-04T12:51:02.633Z,81.34
2022-11-04T12:52:20.305Z,80.79
2022-11-04T12:53:50.752Z,80.40
2022-11-04T12:55:07.319Z,80.57
2022-11-04T12:56:13.733Z,80.52
2022-11-04T12:57:26.247Z,80.33
2022-11-04T12:58:44.555Z,80.43
2022-11-04T13:00:06.573Z,80.58
2022-11-04T13:01:15.684Z,80.43
2022-11-04T13:02:25.256Z,80.66
2022-11-04T13:03:34.773Z,80.90
2022-11-04T13:04:42.011Z,80.54
2022-11-04T13:05:50.061Z,80.67
2022-11-04T13:06:55.109Z,80.71
2022-11-04T13:08:13.791Z,80.19
2022-11-04T13:09:22.576Z,80.00
2022-11-04T13:10:34.269Z,79.98
2022-11-04T13:11:44.634Z,80.34
2022-11-04T13:12:49.690Z,80.18
2022-11-04T13:14:02.268Z,80.21
2022-11-04T13:15:14.239Z,79.65
2022-11-04T13:16:17.459Z,79.56
2022-11-04T13:17:25.662Z,79.22
2022-11-04T13:18:35.125Z,79.52
2022-11-04T13:19:44.828Z,79.29
2022-11-04T13:21:00.819Z,79.20
2022-11-04T13:22:09.507Z,79.16
2022-11-04T13:23:20.743Z,78.96
2022-11-04T13:24:30.634Z,78.98
2022-11-04T13:25:39.736Z,78.75
2022-11-04T13:26:44.647Z,78.64
2022-11-04T13:27:48.245Z,78.63
2022-11-04T13:29:07.514Z,78.26
2022-11-04T13:30:22.254Z,78.52
2022-11-04T13:31:35.870Z,78.67
2022-11-04T13:32:48.694Z,78.50
2022-11-04T13:33:58.029Z,78.94
2022-11-04T13:35:09.969Z,78.57
2022-11-04T13:36:29.688Z,78.28
2022-11-04T13:37:38.222Z,78.67
2022-11-04T13:38:45.692Z,78.53
2022-11-04T13:39:53.253Z,78.48
2022-11-04T13:41:15.099Z,78.19
2022-11-04T13:43:19.900Z,77.78
2022-11-04T13:44:27.182Z,77.86
2022-11-04T13:45:30.255Z,77.89
2022-11-04T13:46:35.692Z,77.51
2022-11-04T13:47:54.372Z,77.99
2022-11-04T13:49:02.696Z,78.44
2022-11-04T13:50:07.447Z,78.07
2022-11-04T13:51:12.442Z,78.32
2022-11-04T13:52:16.406Z,78.30
2022-11-04T13:53:19.955Z,78.55
2022-11-04T13:54:31.592Z,78.85
2022-11-04T13:55:36.049Z,79.10
2022-11-04T13:56:41.600Z,79.05
2022-11-04T13:57:55.911Z,79.25
2022-11-04T13:59:02.409Z,79.32
2022-11-04T14:00:24.328Z,79.34
2022-11-04T14:01:30.462Z,79.61
2022-11-04T14:02:42.394Z,79.67
2022-11-04T14:03:53.933Z,79.53
2022-11-04T14:04:57.026Z,79.68
2022-11-04T14:06:05.679Z,79.71
2022-11-04T14:07:10.814Z,80.05
2022-11-04T14:08:14.697Z,80.37
2022-11-04T14:09:52.034Z,80.29
2022-11-04T14:11:08.259Z,80.48
2022-11-04T14:12:38.393Z,80.64
2022-11-04T14:14:18.116Z,80.63
2022-11-04T14:15:54.697Z,80.61
2022-11-04T14:16:57.728Z,80.56
2022-11-04T14:18:09.111Z,80.41
2022-11-04T14:19:57.268Z,80.55
2022-11-04T14:21:19.579Z,80.63
2022-11-04T14:22:23.505Z,80.56
2022-11-04T14:23:28.324Z,80.80
2022-11-04T14:24:30.333Z,81.12
2022-11-04T14:25:40.069Z,81.44
2022-11-04T14:26:44.380Z,81.25
2022-11-04T14:27:50.484Z,81.64
2022-11-04T14:29:03.391Z,81.60
2022-11-04T14:30:28.037Z,81.82
2022-11-04T14:31:38.024Z,82.09
2022-11-04T14:32:41.929Z,82.26
2022-11-04T14:33:54.584Z,82.81
2022-11-04T14:35:03.641Z,82.85